Time;durP1;ratioP1;P1;durP2;ratioP2;P2;SDS_P1;SDS_P2;PMS_P1;PMS_P2;Temp;Humidity;BMP_temperature;BMP_pressure;BME280_temperature;BME280_humidity;BME280_pressure;Samples;Min_cycle;Max_cycle;Signal;HPM_P1;HPM_P2
2024/04/21 00:00:22;;;;;;;10.80;2.37;;;7.30;96.30;;;;;;5490891;26;20224;-87
2024/04/21 00:02:47;;;;;;;12.63;3.23;;;7.30;94.20;;;;;;5490158;26;20323;-88
2024/04/21 00:05:13;;;;;;;12.37;3.27;;;7.30;93.50;;;;;;5491175;26;20578;-91
2024/04/21 00:07:39;;;;;;;11.13;2.87;;;7.20;90.50;;;;;;5488806;26;20673;-87
2024/04/21 00:10:05;;;;;;;8.27;2.33;;;7.20;88.40;;;;;;5489187;26;20774;-88
2024/04/21 00:12:32;;;;;;;8.03;2.50;;;7.30;86.50;;;;;;5488839;26;20279;-90
2024/04/21 00:14:58;;;;;;;7.10;2.40;;;7.20;81.80;;;;;;5492722;26;20236;-89
2024/04/21 00:17:25;;;;;;;8.33;2.27;;;7.30;81.30;;;;;;5491011;26;20328;-91
2024/04/21 00:19:51;;;;;;;8.67;2.20;;;7.20;79.40;;;;;;5490504;26;20212;-85
2024/04/21 00:22:17;;;;;;;12.87;2.63;;;7.20;78.90;;;;;;5488526;26;20353;-86
2024/04/21 00:24:42;;;;;;;7.83;2.13;;;7.20;79.00;;;;;;5490978;26;20549;-88
2024/04/21 00:27:09;;;;;;;8.00;2.57;;;7.30;78.60;;;;;;5488472;26;20607;-90
2024/04/21 00:29:36;;;;;;;9.07;2.50;;;7.20;77.50;;;;;;5491523;26;20233;-87
2024/04/21 00:32:01;;;;;;;8.47;2.20;;;7.20;81.30;;;;;;5493767;26;20293;-85
2024/04/21 00:34:27;;;;;;;7.63;2.10;;;7.20;83.30;;;;;;5461320;26;20220;-90
2024/04/21 00:36:53;;;;;;;12.83;2.30;;;7.20;78.30;;;;;;5491659;26;20217;-92
2024/04/21 00:39:18;;;;;;;10.17;2.30;;;7.20;78.60;;;;;;5493940;26;20575;-86
2024/04/21 00:41:44;;;;;;;9.47;2.87;;;7.10;83.40;;;;;;5493869;26;20213;-90
2024/04/21 00:44:10;;;;;;;8.17;2.07;;;7.00;90.90;;;;;;5492223;26;20250;-86
2024/04/21 00:46:38;;;;;;;7.70;2.40;;;6.80;97.50;;;;;;5493694;26;20217;-88
2024/04/21 00:49:07;;;;;;;7.43;2.10;;;6.70;99.60;;;;;;5492658;26;20224;-85
2024/04/21 00:51:34;;;;;;;8.17;2.37;;;6.60;99.90;;;;;;5496157;26;20255;-85
2024/04/21 00:54:01;;;;;;;8.30;2.10;;;6.60;99.90;;;;;;5494595;26;20220;-86
2024/04/21 00:56:27;;;;;;;4.83;2.30;;;6.70;99.90;;;;;;5491562;26;20224;-88
2024/04/21 00:58:54;;;;;;;7.00;2.30;;;6.60;99.90;;;;;;5492409;26;20748;-92
2024/04/21 01:01:20;;;;;;;11.93;2.67;;;6.70;99.90;;;;;;5490085;26;20241;-90
2024/04/21 01:03:46;;;;;;;7.33;2.00;;;6.70;99.90;;;;;;5491672;26;20272;-91
2024/04/21 01:06:14;;;;;;;6.37;2.00;;;6.80;99.90;;;;;;5493362;26;20213;-89
2024/04/21 01:08:39;;;;;;;5.03;1.83;;;6.80;99.90;;;;;;5490768;26;20236;-85
2024/04/21 01:11:17;;;;;;;5.80;2.00;;;6.80;98.60;;;;;;5491075;26;20251;-92
2024/04/21 01:13:43;;;;;;;7.67;2.00;;;6.80;96.40;;;;;;5494495;26;20239;-90
2024/04/21 01:16:09;;;;;;;7.10;2.10;;;6.90;94.10;;;;;;5493422;26;20216;-91
2024/04/21 01:18:35;;;;;;;8.63;2.20;;;6.80;91.60;;;;;;5491000;26;20585;-85
2024/04/21 01:21:01;;;;;;;5.33;1.53;;;7.00;92.80;;;;;;5491952;26;20246;-90
2024/04/21 01:23:27;;;;;;;10.63;2.20;;;6.90;90.70;;;;;;5490342;26;20436;-87
2024/04/21 01:25:54;;;;;;;10.33;1.97;;;6.90;90.60;;;;;;5490696;26;20231;-90
2024/04/21 01:28:19;;;;;;;6.60;1.83;;;7.00;90.10;;;;;;5491990;26;20407;-86
2024/04/21 01:30:45;;;;;;;6.40;1.93;;;7.00;86.00;;;;;;5491238;26;20542;-85
2024/04/21 01:33:11;;;;;;;10.30;2.33;;;7.10;82.30;;;;;;5491695;26;20723;-88
2024/04/21 01:35:37;;;;;;;10.00;1.90;;;7.30;81.90;;;;;;5491389;26;20232;-88
2024/04/21 01:38:03;;;;;;;5.20;2.00;;;7.30;76.40;;;;;;5493429;26;20212;-86
2024/04/21 01:40:28;;;;;;;5.80;1.80;;;7.00;77.30;;;;;;5492509;26;20314;-86
2024/04/21 01:42:54;;;;;;;8.43;2.20;;;7.10;79.60;;;;;;5489146;26;20620;-85
2024/04/21 01:45:22;;;;;;;8.67;2.07;;;7.30;77.70;;;;;;5490748;26;20224;-87
2024/04/21 01:47:48;;;;;;;5.30;1.83;;;7.30;74.30;;;;;;5492409;26;20288;-91
2024/04/21 01:50:14;;;;;;;6.97;2.17;;;7.30;69.50;;;;;;5492141;26;20267;-86
2024/04/21 01:52:40;;;;;;;7.90;2.43;;;7.20;75.80;;;;;;5490207;26;20312;-87
2024/04/21 01:55:06;;;;;;;5.87;1.83;;;7.20;72.30;;;;;;5489836;26;20304;-88
2024/04/21 01:57:31;;;;;;;7.20;2.20;;;7.20;73.10;;;;;;5490705;26;20247;-87
2024/04/21 01:59:57;;;;;;;5.27;1.70;;;7.30;74.30;;;;;;5489807;26;20236;-85
2024/04/21 02:02:23;;;;;;;3.70;1.50;;;7.20;75.80;;;;;;5490734;26;20251;-87
2024/04/21 02:04:49;;;;;;;4.27;1.60;;;7.00;82.10;;;;;;5491625;26;20216;-87
2024/04/21 02:07:14;;;;;;;6.03;1.87;;;6.60;95.70;;;;;;5491429;26;20217;-87
2024/04/21 02:09:40;;;;;;;7.97;2.17;;;6.20;99.90;;;;;;5489249;26;20264;-87
2024/04/21 02:12:06;;;;;;;8.20;1.77;;;6.00;99.90;;;;;;5490890;26;20229;-93
2024/04/21 02:14:32;;;;;;;7.87;2.20;;;5.80;99.90;;;;;;5490090;26;20705;-86
2024/04/21 02:16:57;;;;;;;4.87;1.60;;;5.90;99.90;;;;;;5491334;26;20256;-91
2024/04/21 02:19:23;;;;;;;5.97;2.20;;;5.50;99.90;;;;;;5491258;26;20329;-88
2024/04/21 02:21:48;;;;;;;6.80;2.20;;;5.20;99.90;;;;;;5491061;26;20263;-91
2024/04/21 02:24:14;;;;;;;5.63;2.07;;;5.20;99.90;;;;;;5491955;26;20742;-91
2024/04/21 02:26:40;;;;;;;7.30;2.00;;;5.30;99.90;;;;;;5489277;26;20225;-85
2024/04/21 02:29:06;;;;;;;4.73;1.77;;;5.40;99.90;;;;;;5489164;26;20236;-87
2024/04/21 02:31:32;;;;;;;5.87;1.70;;;5.40;99.90;;;;;;5491820;26;20218;-87
2024/04/21 02:33:58;;;;;;;8.33;2.50;;;5.50;99.90;;;;;;5490749;26;20216;-89
2024/04/21 02:36:24;;;;;;;6.90;2.30;;;5.70;99.90;;;;;;5489365;26;20240;-89
2024/04/21 02:38:50;;;;;;;9.20;1.90;;;5.80;99.90;;;;;;5491008;26;20247;-88
2024/04/21 02:41:15;;;;;;;8.33;2.00;;;6.10;99.90;;;;;;5488705;26;20693;-91
2024/04/21 02:43:41;;;;;;;7.43;1.90;;;6.10;99.90;;;;;;5486606;26;20216;-92
2024/04/21 02:46:07;;;;;;;7.53;1.90;;;6.20;99.90;;;;;;5490624;26;20571;-86
2024/04/21 02:48:33;;;;;;;5.57;1.90;;;5.90;99.90;;;;;;5491456;26;20340;-86
2024/04/21 02:50:59;;;;;;;7.30;2.23;;;5.90;99.90;;;;;;5487454;26;20221;-87
2024/04/21 02:53:25;;;;;;;5.60;1.87;;;6.00;99.90;;;;;;5491120;26;20224;-88
2024/04/21 02:55:53;;;;;;;6.67;2.07;;;6.00;99.90;;;;;;5489265;26;20262;-85
2024/04/21 02:58:19;;;;;;;6.60;2.10;;;6.00;99.90;;;;;;5489749;26;20225;-89
2024/04/21 03:00:46;;;;;;;7.97;2.00;;;6.00;99.90;;;;;;5491636;26;20240;-87
2024/04/21 03:03:11;;;;;;;5.43;1.80;;;5.80;99.90;;;;;;5487840;26;20227;-86
2024/04/21 03:05:37;;;;;;;7.07;1.70;;;5.70;99.90;;;;;;5489406;26;20287;-89
2024/04/21 03:08:03;;;;;;;5.57;1.27;;;5.60;99.90;;;;;;5489865;26;20251;-86
2024/04/21 03:10:29;;;;;;;4.07;1.30;;;5.60;99.90;;;;;;5490174;26;20266;-90
2024/04/21 03:12:55;;;;;;;3.80;1.73;;;5.50;99.90;;;;;;5488172;26;20268;-90
2024/04/21 03:15:21;;;;;;;7.23;1.60;;;5.50;99.90;;;;;;5488445;26;20625;-85
2024/04/21 03:17:47;;;;;;;4.60;1.30;;;5.50;99.90;;;;;;5491027;26;20216;-91
2024/04/21 03:20:12;;;;;;;5.37;1.53;;;5.60;99.90;;;;;;5489736;26;20247;-90
2024/04/21 03:22:38;;;;;;;3.77;1.30;;;5.80;99.90;;;;;;5490806;26;20219;-90
2024/04/21 03:25:04;;;;;;;5.63;1.70;;;5.80;99.90;;;;;;5490170;26;20262;-86
2024/04/21 03:27:30;;;;;;;5.40;1.43;;;5.70;99.90;;;;;;5489450;26;20247;-84
2024/04/21 03:29:55;;;;;;;4.43;1.77;;;5.80;96.70;;;;;;5491226;26;20720;-87
2024/04/21 03:32:21;;;;;;;4.57;1.30;;;5.70;93.70;;;;;;5488421;26;20251;-92
2024/04/21 03:34:55;;;;;;;2.67;1.10;;;5.60;93.10;;;;;;5488651;26;20629;-87
2024/04/21 03:37:22;;;;;;;3.10;1.17;;;5.80;92.70;;;;;;5490016;26;20643;-86
2024/04/21 03:39:49;;;;;;;5.97;1.20;;;5.90;93.10;;;;;;5486767;26;20276;-90
2024/04/21 03:42:14;;;;;;;4.00;1.37;;;5.80;91.80;;;;;;5489746;26;20316;-89
2024/04/21 03:44:41;;;;;;;2.60;0.83;;;5.70;92.50;;;;;;5491059;26;21398;-88
2024/04/21 03:47:07;;;;;;;5.37;1.20;;;5.80;93.50;;;;;;5491409;26;20736;-91
2024/04/21 03:49:33;;;;;;;4.80;1.40;;;5.80;95.80;;;;;;5488140;26;20236;-90
2024/04/21 03:52:00;;;;;;;2.50;1.30;;;5.70;94.70;;;;;;5490516;26;20276;-87
2024/04/21 03:54:25;;;;;;;6.40;1.97;;;5.70;94.60;;;;;;5490876;26;20251;-84
2024/04/21 03:56:51;;;;;;;5.93;1.20;;;5.80;94.50;;;;;;5489379;26;20688;-89
2024/04/21 03:59:17;;;;;;;5.63;1.70;;;5.60;94.90;;;;;;5490020;26;20220;-89
2024/04/21 04:01:44;;;;;;;8.67;1.80;;;5.70;98.00;;;;;;5488547;26;20550;-89
2024/04/21 04:04:10;;;;;;;5.70;1.43;;;5.70;99.90;;;;;;5491571;26;20231;-87
2024/04/21 04:06:36;;;;;;;6.23;1.60;;;5.70;99.90;;;;;;5493970;26;20263;-86
2024/04/21 04:09:01;;;;;;;4.03;1.17;;;5.60;99.90;;;;;;5492550;26;20660;-85
2024/04/21 04:11:28;;;;;;;4.47;1.63;;;5.60;99.90;;;;;;5493672;26;20685;-85
2024/04/21 04:13:54;;;;;;;4.73;1.43;;;5.50;99.90;;;;;;5491554;26;20259;-90
2024/04/21 04:16:19;;;;;;;6.53;1.67;;;5.50;99.90;;;;;;5494265;26;20315;-89
2024/04/21 04:18:46;;;;;;;6.07;1.83;;;5.60;99.90;;;;;;5494148;26;20212;-87
2024/04/21 04:21:12;;;;;;;5.90;1.50;;;5.50;99.90;;;;;;5495069;26;20216;-85
2024/04/21 04:23:38;;;;;;;10.43;1.97;;;5.60;99.90;;;;;;5494280;26;20250;-89
2024/04/21 04:26:04;;;;;;;7.43;1.60;;;5.50;99.90;;;;;;5495396;26;20681;-84
2024/04/21 04:28:29;;;;;;;8.57;2.10;;;5.40;99.90;;;;;;5492101;26;20228;-87
2024/04/21 04:30:55;;;;;;;9.83;2.27;;;5.50;99.90;;;;;;5494253;26;20247;-92
2024/04/21 04:33:21;;;;;;;9.37;2.00;;;5.50;99.90;;;;;;5493953;26;20213;-85
2024/04/21 04:35:47;;;;;;;7.53;1.90;;;5.70;99.90;;;;;;5493239;26;20328;-89
2024/04/21 04:38:13;;;;;;;6.00;1.80;;;5.70;99.90;;;;;;5491129;26;20260;-92
2024/04/21 04:40:39;;;;;;;7.93;1.83;;;5.60;99.90;;;;;;5491759;26;21116;-92
2024/04/21 04:43:04;;;;;;;7.30;2.23;;;5.70;99.90;;;;;;5491139;26;20220;-86
2024/04/21 04:45:31;;;;;;;7.83;2.17;;;5.90;99.90;;;;;;5495056;26;20212;-89
2024/04/21 04:47:56;;;;;;;8.80;1.93;;;6.10;99.90;;;;;;5492215;26;20307;-86
2024/04/21 04:50:22;;;;;;;10.97;1.93;;;6.00;99.90;;;;;;5491660;26;20330;-85
2024/04/21 04:52:55;;;;;;;9.20;2.00;;;5.90;99.10;;;;;;5492121;26;20812;-85
2024/04/21 04:55:21;;;;;;;6.93;1.97;;;5.90;99.90;;;;;;5493407;26;20421;-84
2024/04/21 04:57:46;;;;;;;6.93;1.70;;;5.80;99.90;;;;;;5493520;26;20216;-91
2024/04/21 05:00:12;;;;;;;7.60;1.83;;;5.80;99.90;;;;;;5494096;26;20248;-91
2024/04/21 05:02:38;;;;;;;4.17;1.87;;;5.80;99.90;;;;;;5491693;26;20672;-91
2024/04/21 05:05:05;;;;;;;4.63;1.63;;;5.80;99.90;;;;;;5492286;26;20220;-84
2024/04/21 05:07:30;;;;;;;7.57;1.67;;;5.70;99.90;;;;;;5493222;26;20236;-85
2024/04/21 05:09:57;;;;;;;6.80;2.10;;;5.70;99.90;;;;;;5494521;26;20259;-86
2024/04/21 05:12:24;;;;;;;8.80;2.13;;;5.70;99.90;;;;;;5493476;26;20292;-91
2024/04/21 05:14:49;;;;;;;5.63;2.00;;;5.80;99.90;;;;;;5491280;26;20297;-87
2024/04/21 05:17:15;;;;;;;5.97;2.00;;;5.80;99.90;;;;;;5491628;26;20292;-89
2024/04/21 05:19:41;;;;;;;8.00;2.00;;;5.80;99.10;;;;;;5490890;26;20311;-91
2024/04/21 05:22:07;;;;;;;7.27;1.73;;;5.80;98.00;;;;;;5490551;26;20271;-85
2024/04/21 05:24:33;;;;;;;8.57;1.80;;;5.70;96.90;;;;;;5489838;26;20220;-88
2024/04/21 05:26:59;;;;;;;8.47;2.07;;;5.70;97.10;;;;;;5490731;26;20221;-84
2024/04/21 05:29:24;;;;;;;7.17;1.70;;;5.70;98.80;;;;;;5491199;26;20795;-86
2024/04/21 05:31:50;;;;;;;6.43;1.40;;;5.70;98.80;;;;;;5489680;26;20247;-86
2024/04/21 05:34:16;;;;;;;4.83;1.63;;;5.70;99.30;;;;;;5491836;26;20226;-92
2024/04/21 05:36:42;;;;;;;6.07;1.60;;;5.70;99.90;;;;;;5491809;26;20657;-90
2024/04/21 05:39:08;;;;;;;6.40;2.00;;;5.70;99.90;;;;;;5491005;26;20224;-90
2024/04/21 05:41:34;;;;;;;7.33;1.97;;;5.70;99.90;;;;;;5490996;26;20213;-88
2024/04/21 05:44:00;;;;;;;8.50;2.30;;;5.60;99.90;;;;;;5491797;26;20320;-86
2024/04/21 05:46:26;;;;;;;9.70;2.23;;;5.60;99.90;;;;;;5489950;26;20308;-85
2024/04/21 05:48:53;;;;;;;7.03;2.07;;;5.80;99.90;;;;;;5491347;26;20231;-89
2024/04/21 05:51:18;;;;;;;10.00;2.73;;;5.90;99.90;;;;;;5491376;26;20612;-88
2024/04/21 05:53:44;;;;;;;7.33;2.10;;;6.00;99.90;;;;;;5491901;26;20220;-89
2024/04/21 05:56:10;;;;;;;7.43;1.97;;;6.10;99.90;;;;;;5490749;26;20684;-88
2024/04/21 05:58:35;;;;;;;12.17;2.13;;;6.00;99.90;;;;;;5492270;26;20262;-87
2024/04/21 06:01:01;;;;;;;9.77;2.27;;;6.00;99.90;;;;;;5490072;26;20279;-88
2024/04/21 06:03:27;;;;;;;8.57;2.27;;;6.00;99.90;;;;;;5490927;26;20877;-91
2024/04/21 06:05:53;;;;;;;7.97;1.97;;;6.00;99.90;;;;;;5491395;26;20216;-90
2024/04/21 06:08:20;;;;;;;11.50;2.57;;;6.10;99.90;;;;;;5490525;26;20225;-87
2024/04/21 06:10:45;;;;;;;10.07;2.10;;;6.20;99.90;;;;;;5489928;26;20671;-89
2024/04/21 06:13:11;;;;;;;6.97;2.40;;;6.20;99.90;;;;;;5491020;26;20259;-86
2024/04/21 06:15:36;;;;;;;10.83;2.50;;;6.10;99.90;;;;;;5490459;26;20359;-90
2024/04/21 06:18:02;;;;;;;5.87;1.90;;;6.00;99.90;;;;;;5490217;26;20255;-90
2024/04/21 06:20:28;;;;;;;9.43;3.07;;;6.00;99.90;;;;;;5490903;26;20545;-91
2024/04/21 06:22:56;;;;;;;9.00;2.30;;;5.80;99.90;;;;;;5491512;26;20693;-91
2024/04/21 06:25:21;;;;;;;7.80;2.70;;;5.80;99.90;;;;;;5491683;26;20250;-86
2024/04/21 06:27:47;;;;;;;5.93;2.03;;;5.70;99.90;;;;;;5490663;26;20224;-86
2024/04/21 06:30:13;;;;;;;9.13;2.20;;;5.60;99.90;;;;;;5491513;26;20282;-87
2024/04/21 06:32:38;;;;;;;8.07;2.47;;;5.60;99.90;;;;;;5491612;26;20559;-86
2024/04/21 06:35:04;;;;;;;8.27;2.53;;;5.60;99.90;;;;;;5489883;26;20271;-89
2024/04/21 06:37:30;;;;;;;8.93;1.87;;;5.50;99.90;;;;;;5490392;26;20596;-86
2024/04/21 06:39:56;;;;;;;3.80;1.80;;;5.40;99.90;;;;;;5491153;26;20232;-86
2024/04/21 06:42:21;;;;;;;4.50;2.00;;;5.50;99.90;;;;;;5492593;26;20682;-86
2024/04/21 06:44:49;;;;;;;4.80;2.10;;;5.30;99.90;;;;;;5490504;26;20247;-87
2024/04/21 06:47:14;;;;;;;6.27;2.50;;;5.40;99.90;;;;;;5488749;26;20328;-89
2024/04/21 06:49:40;;;;;;;5.67;2.13;;;5.50;99.90;;;;;;5495358;26;20259;-90
2024/04/21 06:52:06;;;;;;;6.50;2.37;;;5.60;99.90;;;;;;5492275;26;20804;-86
2024/04/21 06:54:32;;;;;;;7.90;1.73;;;5.70;99.90;;;;;;5494006;26;20216;-84
2024/04/21 06:56:58;;;;;;;5.77;1.80;;;5.70;99.90;;;;;;5494263;26;20216;-89
2024/04/21 06:59:24;;;;;;;4.67;1.50;;;5.70;99.90;;;;;;5494327;26;20332;-90
2024/04/21 07:01:51;;;;;;;4.83;1.43;;;5.90;99.90;;;;;;5490817;26;20224;-88
2024/04/21 07:04:17;;;;;;;5.10;1.20;;;5.80;99.90;;;;;;5490027;26;20225;-89
2024/04/21 07:06:43;;;;;;;7.70;2.03;;;5.70;99.90;;;;;;5489593;26;20268;-89
2024/04/21 07:09:08;;;;;;;5.77;1.80;;;5.90;99.90;;;;;;5491191;26;20723;-91
2024/04/21 07:11:34;;;;;;;4.90;1.60;;;6.10;99.90;;;;;;5490097;26;20296;-91
2024/04/21 07:14:00;;;;;;;4.97;1.37;;;5.80;99.90;;;;;;5489234;26;20236;-88
2024/04/21 07:16:25;;;;;;;6.47;1.90;;;5.80;99.90;;;;;;5489721;26;20216;-86
2024/04/21 07:18:51;;;;;;;3.20;1.70;;;5.80;99.90;;;;;;5487455;26;20220;-88
2024/04/21 07:21:19;;;;;;;8.27;2.00;;;6.00;99.90;;;;;;5488475;26;20315;-85
2024/04/21 07:23:47;;;;;;;8.27;2.30;;;6.00;99.90;;;;;;5489565;26;20303;-86
2024/04/21 07:26:14;;;;;;;6.43;3.00;;;6.10;99.90;;;;;;5488829;26;20217;-92
2024/04/21 07:28:40;;;;;;;4.27;2.00;;;6.10;99.90;;;;;;5490891;26;20216;-88
2024/04/21 07:31:06;;;;;;;6.20;1.93;;;6.10;99.90;;;;;;5488810;26;20220;-86
2024/04/21 07:33:31;;;;;;;6.17;2.07;;;6.00;99.90;;;;;;5490960;26;20212;-87
2024/04/21 07:35:57;;;;;;;7.60;2.17;;;6.00;99.90;;;;;;5491880;26;20216;-87
2024/04/21 07:38:23;;;;;;;5.17;2.63;;;6.10;99.90;;;;;;5491007;26;20212;-88
2024/04/21 07:40:48;;;;;;;7.57;2.83;;;6.10;99.90;;;;;;5490161;26;20327;-87
2024/04/21 07:43:14;;;;;;;4.13;2.40;;;6.20;99.90;;;;;;5487884;26;20646;-93
2024/04/21 07:45:40;;;;;;;7.30;2.43;;;6.20;99.90;;;;;;5490545;26;20676;-89
2024/04/21 07:48:08;;;;;;;8.80;2.80;;;6.10;99.90;;;;;;5492377;26;20324;-90
2024/04/21 07:50:35;;;;;;;7.20;2.93;;;6.20;99.90;;;;;;5491895;26;20252;-86
2024/04/21 07:53:02;;;;;;;6.47;2.93;;;6.10;99.90;;;;;;5492636;26;20574;-90
2024/04/21 07:55:31;;;;;;;10.23;2.83;;;6.20;99.90;;;;;;5488856;26;20247;-86
2024/04/21 07:57:59;;;;;;;5.90;2.50;;;6.20;99.90;;;;;;5491673;26;20216;-86
2024/04/21 08:00:24;;;;;;;6.47;2.03;;;6.30;99.90;;;;;;5488997;26;20236;-90
2024/04/21 08:02:50;;;;;;;7.90;2.10;;;6.20;99.90;;;;;;5490036;26;20254;-93
2024/04/21 08:05:16;;;;;;;5.40;1.90;;;6.20;99.90;;;;;;5492104;26;20212;-91
2024/04/21 08:07:42;;;;;;;6.40;2.43;;;6.30;99.90;;;;;;5491376;26;20727;-92
2024/04/21 08:10:11;;;;;;;7.23;2.70;;;6.30;99.90;;;;;;5489351;26;20224;-88
2024/04/21 08:12:37;;;;;;;6.47;1.77;;;6.30;99.90;;;;;;5490266;26;20224;-87
2024/04/21 08:15:05;;;;;;;4.47;1.73;;;6.40;99.90;;;;;;5489949;26;20677;-90
2024/04/21 08:17:34;;;;;;;3.20;1.50;;;6.40;99.20;;;;;;5493058;26;20364;-89
2024/04/21 08:20:01;;;;;;;7.17;1.80;;;6.30;94.70;;;;;;5494414;26;20274;-90
2024/04/21 08:22:30;;;;;;;5.03;1.50;;;6.40;96.60;;;;;;5554407;25;20259;-87
2024/04/21 08:24:55;;;;;;;4.13;2.00;;;6.30;99.90;;;;;;5491402;26;20248;-91
2024/04/21 08:27:23;;;;;;;2.13;1.10;;;6.30;99.90;;;;;;5492098;26;20255;-87
2024/04/21 08:29:49;;;;;;;2.87;1.10;;;6.40;99.90;;;;;;5494288;26;20241;-89
2024/04/21 08:32:14;;;;;;;3.37;1.43;;;6.50;99.90;;;;;;5492690;26;20767;-89
2024/04/21 08:34:41;;;;;;;1.83;1.00;;;6.60;99.90;;;;;;5492228;26;20654;-90
2024/04/21 08:37:08;;;;;;;2.47;0.90;;;6.60;96.10;;;;;;5490027;26;20260;-87
2024/04/21 08:39:34;;;;;;;1.97;0.93;;;6.50;93.50;;;;;;5489439;26;20276;-91
2024/04/21 08:42:01;;;;;;;2.17;1.10;;;6.50;94.70;;;;;;5486971;26;20247;-89
2024/04/21 08:44:29;;;;;;;3.23;1.97;;;6.50;95.40;;;;;;5486809;26;20250;-91
2024/04/21 08:46:56;;;;;;;1.97;1.00;;;6.60;98.90;;;;;;5487717;26;20232;-89
2024/04/21 08:49:23;;;;;;;1.90;1.03;;;6.60;94.00;;;;;;5490130;26;20331;-87
2024/04/21 08:51:50;;;;;;;1.00;0.90;;;6.70;94.10;;;;;;5491224;26;20221;-89
2024/04/21 08:54:16;;;;;;;1.67;1.07;;;6.60;92.80;;;;;;5554160;25;20246;-92
2024/04/21 08:56:48;;;;;;;2.73;1.33;;;6.60;91.30;;;;;;5491789;26;20228;-87
2024/04/21 08:59:15;;;;;;;2.03;0.93;;;6.60;90.10;;;;;;5492607;26;20784;-90
2024/04/21 09:01:41;;;;;;;1.53;1.00;;;6.60;83.90;;;;;;5490787;26;20676;-89
2024/04/21 09:04:07;;;;;;;1.90;1.17;;;6.60;87.40;;;;;;5494005;26;20673;-86
2024/04/21 09:06:36;;;;;;;2.23;1.20;;;6.70;86.50;;;;;;5492980;26;20343;-88
2024/04/21 09:09:02;;;;;;;2.27;1.20;;;7.00;90.80;;;;;;5491634;26;20318;-87
2024/04/21 09:11:30;;;;;;;1.70;1.10;;;7.10;71.60;;;;;;5491116;26;20220;-91
2024/04/21 09:13:56;;;;;;;1.40;1.00;;;7.10;51.10;;;;;;5469580;26;20233;-89
2024/04/21 09:16:24;;;;;;;1.23;1.13;;;7.00;45.00;;;;;;5454280;26;20240;-86
2024/04/21 09:18:49;;;;;;;2.80;1.80;;;7.10;44.60;;;;;;5454064;26;20294;-87
2024/04/21 09:21:16;;;;;;;1.77;1.30;;;7.10;43.70;;;;;;5454074;26;20626;-87
2024/04/21 09:23:42;;;;;;;1.57;1.27;;;7.00;46.50;;;;;;5471111;26;20228;-87
2024/04/21 09:26:08;;;;;;;3.80;2.10;;;6.90;50.60;;;;;;5491550;26;20731;-88
2024/04/21 09:28:35;;;;;;;1.97;1.33;;;6.90;55.70;;;;;;5489716;26;20250;-90
2024/04/21 09:31:00;;;;;;;2.10;1.57;;;6.80;58.90;;;;;;5489498;26;20704;-88
2024/04/21 09:33:26;;;;;;;3.37;1.43;;;6.80;61.10;;;;;;5491793;26;20347;-87
2024/04/21 09:35:57;;;;;;;2.23;1.27;;;6.90;57.90;;;;;;5493489;26;20213;-87
2024/04/21 09:38:23;;;;;;;3.60;1.50;;;6.90;59.40;;;;;;5492822;26;20223;-90
2024/04/21 09:40:51;;;;;;;2.53;1.60;;;6.90;60.30;;;;;;5489793;26;20228;-95
2024/04/21 09:43:21;;;;;;;3.90;1.93;;;6.90;61.80;;;;;;5491181;26;20216;-94
2024/04/21 09:45:48;;;;;;;2.30;1.40;;;7.00;66.60;;;;;;5489237;26;20319;-86
2024/04/21 09:48:17;;;;;;;3.07;1.70;;;7.10;66.60;;;;;;5491606;26;20267;-87
2024/04/21 09:50:43;;;;;;;3.50;1.50;;;7.00;58.90;;;;;;5490049;26;20248;-84
2024/04/21 09:53:10;;;;;;;3.67;1.70;;;6.90;61.00;;;;;;5491708;26;20229;-86
2024/04/21 09:55:37;;;;;;;2.43;1.20;;;6.90;59.30;;;;;;5489576;26;20258;-85
2024/04/21 09:58:11;;;;;;;4.20;1.70;;;6.90;58.10;;;;;;5490054;26;20291;-86
2024/04/21 10:00:39;;;;;;;2.97;1.63;;;7.20;64.40;;;;;;5491043;26;20232;-91
2024/04/21 10:03:06;;;;;;;3.20;1.73;;;7.30;61.20;;;;;;5489078;26;20576;-87
2024/04/21 10:05:33;;;;;;;3.83;1.70;;;7.50;60.40;;;;;;5487919;26;20607;-89
2024/04/21 10:08:00;;;;;;;2.80;1.37;;;7.70;53.30;;;;;;5490657;26;20216;-85
2024/04/21 10:10:30;;;;;;;2.67;1.50;;;7.80;47.30;;;;;;5489655;26;20220;-83
2024/04/21 10:12:56;;;;;;;1.87;1.17;;;7.80;44.80;;;;;;5515161;25;20594;-86
2024/04/21 10:15:23;;;;;;;1.90;1.20;;;7.60;37.50;;;;;;5488949;26;20304;-85
2024/04/21 10:17:56;;;;;;;3.43;1.40;;;7.60;41.90;;;;;;5488435;26;20228;-85
2024/04/21 10:20:34;;;;;;;2.30;1.40;;;7.70;40.50;;;;;;5488046;26;20307;-87
2024/04/21 10:23:01;;;;;;;3.20;1.20;;;7.80;33.40;;;;;;5487177;26;20258;-84
2024/04/21 10:25:31;;;;;;;2.20;1.60;;;8.00;27.80;;;;;;5486059;26;20264;-84
2024/04/21 10:28:03;;;;;;;3.80;1.30;;;8.10;20.30;;;;;;5490313;26;20271;-83
2024/04/21 10:30:30;;;;;;;1.97;1.20;;;8.30;19.70;;;;;;5490773;26;20275;-84
2024/04/21 10:33:04;;;;;;;2.83;1.30;;;8.20;13.00;;;;;;5487685;26;20309;-91
2024/04/21 10:35:37;;;;;;;4.60;1.57;;;8.20;8.30;;;;;;5487108;26;20550;-85
2024/04/21 10:38:07;;;;;;;3.00;1.40;;;8.30;10.60;;;;;;5487870;26;20657;-85
2024/04/21 10:40:39;;;;;;;4.17;1.50;;;8.50;13.90;;;;;;5490432;26;20212;-84
2024/04/21 10:43:06;;;;;;;3.63;1.70;;;8.60;8.30;;;;;;5489847;26;20220;-85
2024/04/21 10:45:36;;;;;;;5.47;2.20;;;8.70;1.00;;;;;;5487938;26;20246;-84
2024/04/21 10:48:01;;;;;;;3.47;1.50;;;8.80;1.00;;;;;;5488821;26;20263;-86
2024/04/21 10:50:27;;;;;;;4.93;1.50;;;8.90;1.00;;;;;;5489175;26;20224;-88
2024/04/21 10:52:54;;;;;;;2.00;1.10;;;9.10;1.00;;;;;;5490471;26;20769;-92
2024/04/21 10:55:20;;;;;;;4.13;2.30;;;8.80;1.00;;;;;;5489031;26;20236;-85
2024/04/21 10:57:46;;;;;;;4.40;1.50;;;8.70;1.00;;;;;;5489997;26;20216;-84
2024/04/21 11:00:12;;;;;;;3.80;1.47;;;8.70;1.00;;;;;;5492190;26;20306;-90
2024/04/21 11:02:38;;;;;;;2.67;1.50;;;8.70;1.00;;;;;;5493822;26;20248;-90
2024/04/21 11:05:04;;;;;;;2.03;1.23;;;8.70;1.00;;;;;;5491125;26;20351;-95
2024/04/21 11:07:34;;;;;;;2.70;1.23;;;8.90;1.00;;;;;;5493528;26;20213;-93
2024/04/21 11:09:59;;;;;;;6.40;1.60;;;9.10;1.00;;;;;;5495760;26;20228;-88
2024/04/21 11:12:25;;;;;;;4.30;1.40;;;9.30;1.00;;;;;;5492104;26;20268;-91
2024/04/21 11:14:57;;;;;;;3.00;1.20;;;9.40;1.00;;;;;;5489385;26;20216;-90
2024/04/21 11:17:23;;;;;;;3.47;1.17;;;9.30;1.00;;;;;;5495166;26;20274;-88
2024/04/21 11:19:51;;;;;;;4.27;1.40;;;9.20;1.00;;;;;;5559918;25;20224;-90
2024/04/21 11:22:18;;;;;;;4.43;1.30;;;9.20;1.00;;;;;;5559506;25;20236;-87
2024/04/21 11:24:44;;;;;;;4.70;1.30;;;9.20;1.00;;;;;;5492936;26;20228;-85
2024/04/21 11:27:11;;;;;;;4.40;1.67;;;9.10;1.00;;;;;;5491102;26;20268;-83
2024/04/21 11:29:41;;;;;;;3.63;1.27;;;9.10;1.00;;;;;;5499835;26;20244;-87
2024/04/21 11:32:10;;;;;;;3.90;1.53;;;9.00;1.00;;;;;;5489646;26;20231;-86
2024/04/21 11:34:39;;;;;;;2.50;1.20;;;9.00;1.00;;;;;;5448379;26;20236;-85
2024/04/21 11:37:21;;;;;;;4.90;1.90;;;9.10;1.00;;;;;;5541341;25;20709;-85
2024/04/21 11:39:47;;;;;;;4.07;1.37;;;9.30;1.00;;;;;;5536430;25;20609;-83
2024/04/21 11:42:13;;;;;;;4.80;1.60;;;9.40;1.00;;;;;;5448597;26;20288;-84
2024/04/21 11:44:40;;;;;;;3.47;1.37;;;9.40;1.00;;;;;;5452552;26;20322;-84
2024/04/21 11:47:06;;;;;;;4.83;1.40;;;9.50;1.00;;;;;;5485863;26;20271;-81
2024/04/21 11:49:32;;;;;;;3.30;1.20;;;9.40;1.00;;;;;;5487974;26;20216;-86
2024/04/21 11:51:57;;;;;;;3.53;1.30;;;9.50;1.00;;;;;;5487567;26;20300;-86
2024/04/21 11:54:23;;;;;;;2.17;1.40;;;9.60;1.00;;;;;;5485561;26;20216;-85
2024/04/21 11:56:50;;;;;;;3.30;1.37;;;9.40;1.00;;;;;;5488648;26;20220;-84
2024/04/21 11:59:15;;;;;;;2.47;1.17;;;9.30;1.00;;;;;;5486226;26;20233;-86
2024/04/21 12:01:41;;;;;;;4.00;1.20;;;9.30;1.00;;;;;;5486140;26;20302;-88
2024/04/21 12:04:07;;;;;;;4.00;1.13;;;9.30;1.00;;;;;;5488560;26;20236;-87
2024/04/21 12:06:33;;;;;;;3.83;1.60;;;9.30;1.00;;;;;;5486295;26;20266;-86
2024/04/21 12:08:58;;;;;;;3.50;1.83;;;9.40;1.00;;;;;;5487115;26;20669;-85
2024/04/21 12:11:24;;;;;;;5.10;1.43;;;9.70;1.00;;;;;;5488179;26;20552;-85
2024/04/21 12:13:50;;;;;;;3.23;1.30;;;10.00;1.00;;;;;;5485897;26;20803;-85
2024/04/21 12:16:15;;;;;;;2.97;1.20;;;10.00;1.00;;;;;;5488134;26;20259;-86
2024/04/21 12:18:41;;;;;;;3.93;1.50;;;10.00;1.00;;;;;;5486555;26;20774;-82
2024/04/21 12:21:07;;;;;;;3.97;1.60;;;9.80;1.00;;;;;;5485972;26;20259;-86
2024/04/21 12:23:32;;;;;;;6.27;1.77;;;9.80;1.00;;;;;;5485831;26;20212;-86
2024/04/21 12:25:58;;;;;;;2.67;1.50;;;10.00;1.00;;;;;;5509814;25;20227;-86
2024/04/21 12:28:24;;;;;;;8.20;3.83;;;10.20;1.00;;;;;;5529298;25;20310;-85
2024/04/21 12:30:50;;;;;;;2.80;1.17;;;10.20;1.00;;;;;;5527500;25;20235;-84
2024/04/21 12:33:15;;;;;;;4.33;1.47;;;10.30;1.00;;;;;;5525870;26;20685;-86
2024/04/21 12:35:44;;;;;;;6.20;1.60;;;10.20;1.00;;;;;;5526788;25;20223;-86
2024/04/21 12:38:10;;;;;;;4.57;1.57;;;9.90;1.00;;;;;;5498200;26;20228;-86
2024/04/21 12:40:35;;;;;;;4.40;1.90;;;9.90;1.00;;;;;;5489243;26;20258;-87
2024/04/21 12:43:01;;;;;;;5.57;1.80;;;10.10;1.00;;;;;;5491784;26;20228;-84
2024/04/21 12:45:28;;;;;;;7.43;2.23;;;10.30;1.00;;;;;;5490779;26;20371;-85
2024/04/21 12:47:53;;;;;;;3.47;1.40;;;10.40;1.00;;;;;;5493942;26;20239;-83
2024/04/21 12:50:19;;;;;;;4.47;1.73;;;10.40;1.00;;;;;;5491789;26;20771;-89
2024/04/21 12:52:46;;;;;;;2.83;1.50;;;10.50;1.00;;;;;;5491454;26;20316;-89